createdAt,value
2022-12-08T00:00:31.927Z,99713.97
2022-12-08T00:05:52.257Z,99719.28
2022-12-08T00:10:53.919Z,99712.03
2022-12-08T00:16:00.699Z,99706.56
2022-12-08T00:21:02.855Z,99709.97
2022-12-08T00:26:05.471Z,99702.94
2022-12-08T00:31:08.744Z,99710.44
2022-12-08T00:36:13.062Z,99705.34
2022-12-08T00:41:17.515Z,99704.75
2022-12-08T00:46:19.177Z,99702.31
2022-12-08T00:51:20.881Z,99697.09
2022-12-08T00:56:22.651Z,99702.44
2022-12-08T01:01:24.438Z,99693.72
2022-12-08T01:06:26.144Z,99702.78
2022-12-08T01:11:28.766Z,99701.94
2022-12-08T01:16:33.253Z,99697.72
2022-12-08T01:21:34.932Z,99692.84
2022-12-08T01:26:43.886Z,99690.75
2022-12-08T01:31:45.598Z,99692.31
2022-12-08T01:36:50.444Z,99685.53
2022-12-08T01:41:52.117Z,99680.44
2022-12-08T01:46:54.415Z,99676.19
2022-12-08T01:52:09.994Z,99673.03
2022-12-08T01:57:12.739Z,99673.28
2022-12-08T02:02:15.257Z,99669.53
2022-12-08T02:07:18.000Z,99666.25
2022-12-08T02:12:19.676Z,99652.44
2022-12-08T02:17:36.575Z,99651.94
2022-12-08T02:22:50.835Z,99641.28
2022-12-08T02:27:55.531Z,99644.06
2022-12-08T02:33:38.853Z,99635.22
2022-12-08T02:38:46.159Z,99641.75
2022-12-08T02:43:49.409Z,99633.31
2022-12-08T02:48:51.759Z,99619.41
2022-12-08T02:53:53.462Z,99622.44
2022-12-08T02:59:16.661Z,99623.78
2022-12-08T03:04:31.276Z,99620.88
2022-12-08T03:09:46.827Z,99615.19
2022-12-08T03:14:53.026Z,99616.88
2022-12-08T03:19:55.746Z,99611.56
2022-12-08T03:24:57.862Z,99607.19
2022-12-08T03:30:00.696Z,99614.22
2022-12-08T03:35:05.795Z,99602.59
2022-12-08T03:40:10.120Z,99600.66
2022-12-08T03:45:12.173Z,99592.41
2022-12-08T03:50:15.107Z,99580.78
2022-12-08T03:55:17.337Z,99590.13
2022-12-08T04:00:19.167Z,99585.44
2022-12-08T04:05:20.811Z,99579.00
2022-12-08T04:10:22.425Z,99578.88
2022-12-08T04:15:24.140Z,99578.75
2022-12-08T04:20:25.832Z,99562.66
2022-12-08T04:25:27.856Z,99567.97
2022-12-08T04:30:29.532Z,99556.47
2022-12-08T04:35:31.645Z,99559.38
2022-12-08T04:40:33.612Z,99558.66
2022-12-08T04:45:35.436Z,99547.28
2022-12-08T04:50:40.608Z,99546.31
2022-12-08T04:55:44.234Z,99553.34
2022-12-08T05:00:46.611Z,99542.78
2022-12-08T05:05:48.272Z,99557.09
2022-12-08T05:10:50.038Z,99556.97
2022-12-08T05:15:51.808Z,99542.16
2022-12-08T05:20:53.513Z,99539.75
2022-12-08T05:25:55.366Z,99525.22
2022-12-08T05:30:57.017Z,99526.31
2022-12-08T05:35:58.653Z,99531.16
2022-12-08T05:41:00.386Z,99525.22
2022-12-08T05:46:02.532Z,99521.97
2022-12-08T05:51:05.010Z,99522.09
2022-12-08T05:56:06.981Z,99524.63
2022-12-08T06:01:21.416Z,99532.00
2022-12-08T06:06:23.073Z,99525.97
2022-12-08T06:11:29.772Z,99520.03
2022-12-08T06:16:31.535Z,99532.63
2022-12-08T06:21:33.275Z,99539.50
2022-12-08T06:26:36.129Z,99539.63
2022-12-08T06:31:37.879Z,99546.66
2022-12-08T06:36:39.553Z,99547.75
2022-12-08T06:41:59.730Z,99543.13
2022-12-08T06:47:01.368Z,99541.69
2022-12-08T06:52:03.090Z,99548.34
2022-12-08T06:57:04.719Z,99545.69
2022-12-08T07:02:06.716Z,99546.78
2022-12-08T07:07:08.441Z,99551.84
2022-12-08T07:12:10.109Z,99544.81
2022-12-08T07:17:12.358Z,99548.22
2022-12-08T07:22:14.362Z,99539.38
2022-12-08T07:27:16.004Z,99547.63
2022-12-08T07:32:17.758Z,99545.06
2022-12-08T07:37:19.480Z,99548.03
2022-12-08T07:42:21.177Z,99540.09
2022-12-08T07:47:22.861Z,99543.53
2022-12-08T07:52:24.816Z,99545.13
2022-12-08T07:57:26.530Z,99550.91
2022-12-08T08:02:28.413Z,99546.66
2022-12-08T08:07:31.306Z,99550.56
2022-12-08T08:12:33.301Z,99557.50
2022-12-08T08:17:36.912Z,99558.50
2022-12-08T08:22:39.073Z,99556.09
2022-12-08T08:27:42.408Z,99557.31
2022-12-08T08:32:45.339Z,99545.81
2022-12-08T08:37:49.446Z,99558.28
2022-12-08T08:42:52.627Z,99545.19
2022-12-08T08:47:54.265Z,99554.16
2022-12-08T08:52:57.709Z,99561.31
2022-12-08T08:57:59.349Z,99562.16
2022-12-08T09:03:01.074Z,99561.53
2022-12-08T09:08:02.872Z,99565.53
2022-12-08T09:13:04.574Z,99560.78
2022-12-08T09:18:12.441Z,99565.06
2022-12-08T09:23:16.068Z,99572.09
2022-12-08T09:28:17.696Z,99566.50
2022-12-08T09:33:19.393Z,99552.94
2022-12-08T09:38:21.126Z,99539.59
2022-12-08T09:43:28.745Z,99545.34
2022-12-08T09:48:34.581Z,99536.38
2022-12-08T09:53:39.851Z,99528.41
2022-12-08T09:58:58.037Z,99525.38
2022-12-08T10:04:00.983Z,99518.41
2022-12-08T10:09:02.625Z,99510.00
2022-12-08T10:14:26.085Z,99511.53
2022-12-08T10:24:37.378Z,99501.06
2022-12-08T10:29:40.536Z,99503.28
2022-12-08T10:35:01.797Z,99504.38
2022-12-08T10:40:11.276Z,99498.06
2022-12-08T10:45:24.196Z,99491.28
2022-12-08T10:50:35.405Z,99488.50
2022-12-08T10:55:46.429Z,99474.84
2022-12-08T11:00:48.226Z,99473.41
2022-12-08T11:05:50.053Z,99473.41
2022-12-08T11:10:51.670Z,99475.38
2022-12-08T11:15:57.186Z,99473.84
2022-12-08T11:21:02.331Z,99465.00
2022-12-08T11:26:18.378Z,99453.00
2022-12-08T11:31:32.424Z,99439.31
2022-12-08T11:36:37.656Z,99430.31
2022-12-08T11:41:42.444Z,99437.63
2022-12-08T11:46:50.867Z,99437.63
2022-12-08T11:52:17.590Z,99440.16
2022-12-08T11:57:21.168Z,99440.69
2022-12-08T12:02:29.778Z,99443.81
2022-12-08T12:07:57.595Z,99430.00
2022-12-08T12:13:26.703Z,99440.03
2022-12-08T12:18:35.893Z,99426.19
2022-12-08T12:23:53.773Z,99434.38
2022-12-08T12:28:59.013Z,99420.56
2022-12-08T12:34:11.008Z,99418.75
2022-12-08T12:39:13.669Z,99418.59
2022-12-08T12:44:15.281Z,99408.34
2022-12-08T12:49:43.904Z,99418.78
2022-12-08T12:55:05.558Z,99407.78
2022-12-08T13:00:10.096Z,99398.06
2022-12-08T13:05:26.182Z,99400.72
2022-12-08T13:10:30.751Z,99393.03
2022-12-08T13:15:38.357Z,99390.94
2022-12-08T13:20:42.789Z,99389.53
2022-12-08T13:25:44.389Z,99375.16
2022-12-08T13:31:26.447Z,99368.69
2022-12-08T13:36:33.845Z,99379.81
2022-12-08T13:41:41.865Z,99378.38
2022-12-08T13:47:16.855Z,99386.25
2022-12-08T13:53:49.043Z,99384.88
2022-12-08T13:57:39.658Z,99381.06
2022-12-08T14:02:49.434Z,99394.72
2022-12-08T14:07:55.013Z,99385.56
2022-12-08T14:13:03.100Z,99383.03
2022-12-08T14:18:04.865Z,99380.94
2022-12-08T14:23:08.235Z,99384.47
2022-12-08T14:28:10.587Z,99387.91
2022-12-08T14:33:15.122Z,99382.41
2022-12-08T14:38:18.828Z,99382.69
2022-12-08T14:43:21.165Z,99379.03
2022-12-08T14:48:25.963Z,99378.03
2022-12-08T14:53:31.963Z,99384.78
2022-12-08T14:58:33.637Z,99381.94
2022-12-08T15:03:36.566Z,99383.41
2022-12-08T15:08:58.764Z,99385.94
2022-12-08T15:14:01.352Z,99391.84
2022-12-08T15:19:30.466Z,99388.63
2022-12-08T15:24:32.419Z,99394.28
2022-12-08T15:29:34.083Z,99400.16
2022-12-08T15:34:37.188Z,99397.69
2022-12-08T15:39:39.434Z,99390.81
2022-12-08T15:44:41.738Z,99400.31
2022-12-08T15:49:44.046Z,99408.97
2022-12-08T15:54:45.783Z,99404.22
2022-12-08T15:59:47.601Z,99401.06
2022-12-08T16:10:20.702Z,99396.38
2022-12-08T16:15:50.062Z,99395.66
2022-12-08T16:21:08.092Z,99394.38
2022-12-08T16:26:21.910Z,99393.97
2022-12-08T16:31:28.613Z,99395.75
2022-12-08T16:36:30.332Z,99399.00
2022-12-08T16:41:50.524Z,99394.59
2022-12-08T16:46:52.278Z,99399.09
2022-12-08T16:51:54.123Z,99399.50
2022-12-08T16:56:55.796Z,99398.66
2022-12-08T17:01:57.532Z,99397.72
2022-12-08T17:06:59.552Z,99400.41
2022-12-08T17:12:04.058Z,99397.31
2022-12-08T17:17:06.544Z,99401.41
2022-12-08T17:22:08.291Z,99398.84
2022-12-08T17:27:09.944Z,99397.03
2022-12-08T17:32:11.846Z,99399.91
2022-12-08T17:37:13.823Z,99399.84
2022-12-08T17:42:15.715Z,99400.69
2022-12-08T17:47:17.366Z,99407.09
2022-12-08T17:52:19.064Z,99398.22
2022-12-08T17:57:20.770Z,99405.06
2022-12-08T18:02:22.658Z,99406.34
2022-12-08T18:07:24.438Z,99399.03
2022-12-08T18:12:26.076Z,99400.22
2022-12-08T18:17:27.745Z,99394.59
2022-12-08T18:22:29.449Z,99390.41
2022-12-08T18:27:31.100Z,99398.28
2022-12-08T18:32:33.182Z,99391.44
2022-12-08T18:37:34.929Z,99393.03
2022-12-08T18:42:36.761Z,99397.94
2022-12-08T18:47:40.241Z,99395.81
2022-12-08T18:52:42.353Z,99391.34
2022-12-08T18:57:44.117Z,99387.44
2022-12-08T19:02:46.036Z,99378.63
2022-12-08T19:07:47.982Z,99383.28
2022-12-08T19:12:51.267Z,99374.56
2022-12-08T19:17:53.074Z,99380.44
2022-12-08T19:22:55.286Z,99394.06
2022-12-08T19:27:56.986Z,99380.16
2022-12-08T19:32:58.778Z,99379.88
2022-12-08T19:38:00.480Z,99389.84
2022-12-08T19:43:20.822Z,99399.09
2022-12-08T19:48:22.594Z,99397.13
2022-12-08T19:53:24.634Z,99394.06
2022-12-08T19:58:26.345Z,99402.34
2022-12-08T20:03:28.120Z,99406.16
2022-12-08T20:08:29.925Z,99411.88
2022-12-08T20:13:47.806Z,99408.63
2022-12-08T20:18:49.993Z,99409.59
2022-12-08T20:23:51.752Z,99422.75
2022-12-08T20:28:53.450Z,99416.72
2022-12-08T20:33:55.595Z,99426.19
2022-12-08T20:38:57.426Z,99429.53
2022-12-08T20:43:59.084Z,99432.00
2022-12-08T20:49:03.256Z,99445.16
2022-12-08T20:54:05.002Z,99441.81
2022-12-08T20:59:06.827Z,99449.94
2022-12-08T21:04:12.348Z,99454.72
2022-12-08T21:09:14.476Z,99450.94
2022-12-08T21:14:16.220Z,99446.47
2022-12-08T21:19:19.829Z,99454.25
2022-12-08T21:24:21.662Z,99453.78
2022-12-08T21:29:23.431Z,99464.00
2022-12-08T21:34:26.327Z,99468.84
2022-12-08T21:39:28.185Z,99472.28
2022-12-08T21:44:30.073Z,99468.88
2022-12-08T21:49:32.045Z,99475.31
2022-12-08T21:54:33.817Z,99476.78
2022-12-08T21:59:35.718Z,99473.75
2022-12-08T22:04:37.673Z,99468.78
2022-12-08T22:09:39.695Z,99458.75
2022-12-08T22:14:41.570Z,99465.66
2022-12-08T22:19:43.661Z,99464.94
2022-12-08T22:24:45.542Z,99462.97
2022-12-08T22:29:47.209Z,99468.56
2022-12-08T22:34:49.942Z,99465.03
2022-12-08T22:39:51.831Z,99464.44
2022-12-08T22:44:53.443Z,99459.72
2022-12-08T22:49:55.197Z,99473.16
2022-12-08T22:54:56.839Z,99464.06
2022-12-08T22:59:58.658Z,99463.94
2022-12-08T23:05:00.550Z,99469.41
2022-12-08T23:10:02.906Z,99466.75
2022-12-08T23:15:05.730Z,99469.16
2022-12-08T23:20:08.179Z,99469.03
2022-12-08T23:25:10.322Z,99460.91
2022-12-08T23:30:12.650Z,99467.94
2022-12-08T23:35:14.756Z,99464.69
2022-12-08T23:40:16.627Z,99468.19
2022-12-08T23:45:18.395Z,99469.88
2022-12-08T23:50:20.187Z,99473.50
2022-12-08T23:55:21.884Z,99468.91
